• Join FlightAware (Why Join?)
  • Login
  • US Flag 
 
07:25PM EST


 

Airport Tracker/Info


-or-


 

Live Flight TrackerFlight Track Log ✈ SWA1688 ✈ 07-Sep-2013 ✈ KPHX - KSTL

Flight Track Log - Related Links

Times and Time Zones

All times are in EDT time to prevent confusion due to time zone crossing. See the SWA1688 flight status page for this flight to view local times or setup timezone preferences in your user account.

Time Position Orientation Groundspeed Altitude Reporting Facility
EDT Latitude Longitude Course Direction KTS MPH feet Rate Location/Type
08:19PM 33.4333 -111.9167 90° East 223 257 3,500  Level Phoenix TRACON
08:20PM 33.4333 -111.8500 90° East 263 303 5,700 2,700 Climbing Phoenix TRACON
08:21PM 33.4000 -111.7500 112° Southeast 293 337 9,000 2,460 Climbing Phoenix TRACON
08:23PM 33.4342 -111.6311 71° East 320 368 11,700 2,400 Climbing Albuquerque Center
08:24PM 33.4650 -111.5186 72° East 346 398 14,600 2,880 Climbing Albuquerque Center
08:25PM 33.5022 -111.3769 72° East 367 422 17,700 2,580 Climbing Albuquerque Center
08:26PM 33.5169 -111.2467 82° East 391 450 20,000 2,220 Climbing Albuquerque Center
08:27PM 33.5356 -111.1139 80° East 403 464 22,300 2,040 Climbing Albuquerque Center
08:28PM 33.5842 -110.9853 66° East 423 487 24,200 1,800 Climbing Albuquerque Center
08:29PM 33.6331 -110.8550 66° East 428 493 26,000 1,560 Climbing Albuquerque Center
08:30PM 33.6819 -110.7217 66° East 434 499 27,400 1,320 Climbing Albuquerque Center
08:31PM 33.7331 -110.5808 66° East 450 518 28,800 1,380 Climbing Albuquerque Center
08:32PM 33.7861 -110.4372 66° East 464 534 30,300 1,620 Climbing Albuquerque Center
08:33PM 33.8406 -110.2867 66° East 474 545 32,100 1,740 Climbing Albuquerque Center
08:34PM 33.8928 -110.1422 66° East 472 543 33,900 1,620 Climbing Albuquerque Center
08:35PM 33.9458 -110.0008 66° East 467 537 35,400 1,560 Climbing Albuquerque Center
08:36PM 33.9961 -109.8614 66° East 459 528 37,100 1,320 Climbing Albuquerque Center
08:37PM 34.0486 -109.7106 67° East 450 518 38,200 840 Climbing Albuquerque Center
08:38PM 34.1053 -109.5564 66° East 450 518 38,900 360 Climbing Albuquerque Center
08:39PM 34.1553 -109.4158 67° East 455 524 39,000  Climbing Albuquerque Center
08:40PM 34.2050 -109.2725 67° East 460 529 39,000  Level Albuquerque Center
08:41PM 34.2550 -109.1306 67° East 459 528 39,000  Level Albuquerque Center
08:42PM 34.3050 -108.9897 67° East 461 531 39,000  Level Albuquerque Center
08:43PM 34.3608 -108.8289 67° East 463 533 39,000  Level Albuquerque Center
08:44PM 34.4083 -108.6917 67° East 462 532 39,000  Level Albuquerque Center
08:45PM 34.4561 -108.5553 67° East 463 533 39,000  Level Albuquerque Center
08:46PM 34.5106 -108.3978 67° East 460 529 39,000  Level Albuquerque Center
08:47PM 34.5583 -108.2553 68° East 458 527 39,000  Level Albuquerque Center
08:48PM 34.6075 -108.1139 67° East 457 526 39,000  Level Albuquerque Center
08:49PM 34.6553 -107.9706 68° East 457 526 39,000  Level Albuquerque Center
08:50PM 34.7036 -107.8294 67° East 455 524 39,000  Level Albuquerque Center
08:51PM 34.7517 -107.6861 68° East 458 527 39,000  Level Albuquerque Center
08:52PM 34.7994 -107.5414 68° East 460 529 39,000  Level Albuquerque Center
08:53PM 34.8553 -107.3789 67° East 458 527 39,000  Level Albuquerque Center
08:54PM 34.9008 -107.2369 69° East 453 521 39,000  Level Albuquerque Center
08:55PM 34.9475 -107.0958 68° East 451 519 39,000  Level Albuquerque Center
08:56PM 34.9939 -106.9553 68° East 448 516 39,000  Level Albuquerque Center
08:57PM 35.0406 -106.8139 68° East 451 519 39,000  Level Albuquerque Center
08:58PM 35.0867 -106.6736 68° East 449 517 39,000  Level Albuquerque Center
08:59PM 35.1328 -106.5283 69° East 460 529 39,000  Level Albuquerque Center
09:00PM 35.1761 -106.3847 70° East 458 527 39,000  Level Albuquerque Center
09:01PM 35.2225 -106.2442 68° East 453 521 39,000  Level Albuquerque Center
09:02PM 35.2672 -106.1033 69° East 449 517 39,000  Level Albuquerque Center
09:03PM 35.3125 -105.9611 69° East 452 520 39,000  Level Albuquerque Center
09:04PM 35.3678 -105.7881 69° East 458 527 39,000  Level Albuquerque Center
09:05PM 35.4128 -105.6431 69° East 460 529 39,000  Level Albuquerque Center
09:06PM 35.4567 -105.5056 69° East 457 526 39,000  Level Albuquerque Center
09:07PM 35.5028 -105.3600 69° East 455 524 39,000  Level Albuquerque Center
09:08PM 35.5478 -105.2136 69° East 453 521 39,000  Level Albuquerque Center
09:09PM 35.5933 -105.0694 69° East 449 517 39,000  Level Albuquerque Center
09:11PM 35.6369 -104.9222 70° East 452 520 39,000  Level Albuquerque Center
09:12PM 35.6806 -104.7797 69° East 444 511 39,000  Level Albuquerque Center
09:13PM 35.7256 -104.6336 69° East 447 514 39,000  Level Albuquerque Center
09:14PM 35.7697 -104.4869 70° East 450 518 39,000  Level Albuquerque Center
09:15PM 35.8139 -104.3397 70° East 452 520 39,000  Level Albuquerque Center
09:16PM 35.8583 -104.1933 69° East 451 519 39,000  Level Albuquerque Center
09:17PM 35.9019 -104.0450 70° East 453 521 39,000  Level Albuquerque Center
09:18PM 35.9456 -103.8967 70° East 455 524 39,000  Level Albuquerque Center
09:19PM 35.9897 -103.7478 70° East 456 525 39,000  Level Albuquerque Center
09:20PM 36.0325 -103.6008 70° East 453 521 39,000  Level Albuquerque Center
09:21PM 36.0756 -103.4531 70° East 452 520 39,000  Level Albuquerque Center
09:22PM 36.1189 -103.3061 70° East 451 519 39,000  Level Albuquerque Center
09:23PM 36.1619 -103.1592 70° East 450 518 39,000  Level Albuquerque Center
09:24PM 36.2028 -103.0114 71° East 451 519 39,000  Level Albuquerque Center
09:25PM 36.2469 -102.8597 70° East 447 514 39,000  Level Albuquerque Center
09:26PM 36.2869 -102.7153 71° East 444 511 39,000  Level Albuquerque Center
09:27PM 36.3275 -102.5719 71° East 442 509 39,000  Level Albuquerque Center
09:28PM 36.3678 -102.4300 71° East 438 504 39,000  Level Albuquerque Center
09:29PM 36.4081 -102.2861 71° East 440 506 39,000  Level Albuquerque Center
09:30PM 36.4475 -102.1408 71° East 442 509 39,000  Level Albuquerque Center
09:31PM 36.4881 -101.9972 71° East 442 509 39,000  Level Albuquerque Center
09:32PM 36.5278 -101.8528 71° East 441 507 39,000  Level Albuquerque Center
09:33PM 36.5675 -101.7064 71° East 444 511 39,000  Level Albuquerque Center
09:34PM 36.6119 -101.5444 71° East 448 516 39,000  Level Albuquerque Center
09:35PM 36.6494 -101.4047 71° East 447 514 39,000  Level Albuquerque Center
09:36PM 36.6933 -101.2397 72° East 449 517 39,000  Level Albuquerque Center
09:37PM 36.7308 -101.0964 72° East 453 521 39,000  Level Albuquerque Center
09:38PM 36.7814 -100.9114 71° East 448 516 39,000  Level Kansas City Center
09:39PM 36.8244 -100.7478 72° East 447 514 39,000  Level Kansas City Center
09:40PM 36.8603 -100.6075 72° East 446 513 39,000  Level Kansas City Center
09:41PM 36.9031 -100.4456 72° East 443 510 39,000  Level Kansas City Center
09:42PM 36.9389 -100.3072 72° East 440 506 39,000  Level Kansas City Center
09:43PM 36.9736 -100.1681 73° East 441 507 39,000  Level Kansas City Center
09:44PM 37.0156 -100.0081 72° East 438 504 39,000  Level Kansas City Center
09:45PM 37.0497 -99.8717 73° East 434 499 39,000  Level Kansas City Center
09:46PM 37.0847 -99.7353 72° East 432 497 39,000  Level Kansas City Center
09:47PM 37.1247 -99.5756 73° East 432 497 39,000  Level Kansas City Center
09:48PM 37.1581 -99.4411 73° East 433 498 39,000  Level Kansas City Center
09:49PM 37.1953 -99.2928 72° East 439 505 39,000  Level Kansas City Center
09:50PM 37.2306 -99.1472 73° East 436 502 39,000  Level Kansas City Center
09:51PM 37.2669 -98.9997 73° East 436 502 39,000  Level Kansas City Center
09:52PM 37.3031 -98.8550 73° East 436 502 39,000  Level Kansas City Center
09:53PM 37.3378 -98.7100 73° East 435 501 39,000  Level Kansas City Center
09:54PM 37.3728 -98.5644 73° East 435 501 39,000  Level Kansas City Center
09:55PM 37.4072 -98.4200 73° East 435 501 39,000  Level Kansas City Center
09:56PM 37.4408 -98.2758 74° East 433 498 39,000  Level Kansas City Center
09:57PM 37.4744 -98.1317 74° East 432 497 39,000  Level Kansas City Center
09:58PM 37.5153 -97.9589 73° East 433 498 39,000  Level Kansas City Center
10:00PM 37.5492 -97.8142 74° East 434 499 39,000  Level Kansas City Center
10:01PM 37.5844 -97.6678 73° East 440 506 39,000  Level Kansas City Center
10:02PM 37.6175 -97.5208 74° East 440 506 39,000  Level Kansas City Center
10:03PM 37.6514 -97.3742 74° East 439 505 39,000  Level Kansas City Center
10:04PM 37.6844 -97.2297 74° East 434 499 39,000  Level Kansas City Center
10:05PM 37.7178 -97.0853 74° East 431 496 39,000  Level Kansas City Center
10:06PM 37.7503 -96.9400 74° East 430 495 39,000  Level Kansas City Center
10:07PM 37.7828 -96.7947 74° East 430 495 39,000  Level Kansas City Center
10:08PM 37.8164 -96.6489 74° East 433 498 39,000  Level Kansas City Center
10:09PM 37.8475 -96.5033 75° East 430 495 39,000  Level Kansas City Center
10:10PM 37.8803 -96.3575 74° East 432 497 39,000  Level Kansas City Center
10:11PM 37.9139 -96.1789 77° East 436 502 39,000  Level Kansas City Center
10:12PM 37.9417 -96.0367 76° East 430 495 39,000  Level Kansas City Center
10:13PM 37.9700 -95.8933 76° East 435 501 39,000  Level Kansas City Center
10:14PM 37.9972 -95.7497 76° East 438 504 39,000  Level Kansas City Center
10:15PM 38.0292 -95.5844 76° East 435 501 39,000  Level Kansas City Center
10:16PM 38.0561 -95.4408 77° East 437 503 39,000  Level Kansas City Center
10:17PM 38.0878 -95.2750 76° East 435 501 39,000  Level Kansas City Center
10:18PM 38.1139 -95.1342 77° East 432 497 39,000  Level Kansas City Center
10:19PM 38.1400 -94.9925 77° East 431 496 39,000  Level Kansas City Center
10:20PM 38.1658 -94.8508 77° East 431 496 39,000  Level Kansas City Center
10:21PM 38.1964 -94.6861 77° East 432 497 39,000  Level Kansas City Center
10:22PM 38.2208 -94.5450 78° East 430 495 39,000  Level Kansas City Center
10:23PM 38.2472 -94.4011 77° East 433 498 39,000  Level Kansas City Center
10:24PM 38.2786 -94.2336 77° East 436 502 39,000  Level Kansas City Center
10:25PM 38.3042 -94.0831 78° East 433 498 39,000  Level Kansas City Center
10:26PM 38.3297 -93.9331 78° East 432 497 39,000  Level Kansas City Center
10:27PM 38.3550 -93.7836 78° East 432 497 39,000  Level Kansas City Center
10:28PM 38.3817 -93.6331 77° East 433 498 39,000  Level Kansas City Center
10:29PM 38.4081 -93.4814 77° East 435 501 39,000  Level Kansas City Center
10:30PM 38.4347 -93.3300 77° East 436 502 39,000  Level Kansas City Center
10:31PM 38.4597 -93.1797 78° East 434 499 39,000  Level Kansas City Center
10:32PM 38.4850 -93.0300 78° East 432 497 39,000  Level Kansas City Center
10:33PM 38.5094 -92.8819 78° East 428 493 39,000  Level Kansas City Center
10:34PM 38.5347 -92.7342 78° East 425 489 39,000  Level Kansas City Center
10:35PM 38.5586 -92.5875 78° East 421 484 39,000 -360 Level Kansas City Center
10:36PM 38.5822 -92.4414 78° East 420 483 38,300 -1,620 Descending Kansas City Center
10:37PM 38.6056 -92.2939 79° East 420 483 35,800 -2,820 Descending Kansas City Center
10:38PM 38.6286 -92.1472 79° East 419 482 32,700 -2,820 Descending Kansas City Center
10:39PM 38.6517 -91.9961 79° East 426 490 30,200 -2,460 Descending Kansas City Center
10:40PM 38.6753 -91.8494 78° East 422 486 27,800 -2,340 Descending Kansas City Center
10:41PM 38.6931 -91.7072 81° East 409 471 25,600 -2,280 Descending Kansas City Center
10:42PM 38.6922 -91.5633 90° East 402 463 23,300 -2,280 Descending Kansas City Center
10:43PM 38.6922 -91.4236 90° East 395 455 21,100 -2,340 Descending Kansas City Center
10:44PM 38.6936 -91.2792 89° East 384 442 18,700 -2,280 Descending Kansas City Center
10:45PM 38.6936 -91.1472 90° East 374 430 16,600 -2,100 Descending Kansas City Center
10:46PM 38.6983 -91.0206 87° East 362 417 14,500 -2,040 Descending Kansas City Center
10:47PM 38.7017 -90.8947 88° East 357 411 12,500 -2,040 Descending Kansas City Center
10:48PM 38.7042 -90.7753 88° East 341 392 10,500 -1,320 Descending Kansas City Center
10:49PM 38.7081 -90.6639 87° East 318 366 9,900 -1,020 Descending Kansas City Center
10:50PM 38.7128 -90.5631 87° East 290 334 8,500 -1,260 Descending Kansas City Center
10:51PM 38.6875 -90.4728 110° East 281 323 7,400 -1,020 Descending Kansas City Center
10:52PM 38.6489 -90.3961 123° Southeast 274 315 6,500 -1,020 Descending Kansas City Center
10:53PM 38.6147 -90.3247 121° Southeast 246 283 5,400 -1,440 Descending Kansas City Center
10:54PM 38.6231 -90.2628 80° East 219 252 3,700 -1,500 Descending Kansas City Center
10:55PM 38.6828 -90.2669 357° North 192 221 2,400 -1,200 Descending Kansas City Center
10:56PM 38.7161 -90.2997 323° Northwest 168 193 1,400 -900 Descending Kansas City Center
10:57PM 38.7369 -90.3419 302° West 150 173 700 -480 Descending Kansas City Center
10:58PM 38.7581 -90.3861 302° West 149 171 500 -240 Descending Kansas City Center